createdAt,value
2023-05-14T00:25:38.128Z,4.47
2023-05-14T00:55:42.253Z,5.38
2023-05-14T01:25:45.367Z,4.82
2023-05-14T01:55:48.521Z,4.90
2023-05-14T02:25:51.564Z,5.03
2023-05-14T02:55:54.532Z,5.13
2023-05-14T03:25:57.496Z,5.32
2023-05-14T03:56:00.511Z,6.13
2023-05-14T04:26:03.765Z,5.90
2023-05-14T04:56:07.442Z,6.63
2023-05-14T05:26:10.411Z,5.35
2023-05-14T05:56:13.399Z,6.28
2023-05-14T06:26:16.384Z,5.65
2023-05-14T06:56:19.394Z,5.18
2023-05-14T07:26:22.392Z,4.93
2023-05-14T07:56:25.460Z,5.70
2023-05-14T08:26:28.454Z,4.72
2023-05-14T09:26:35.629Z,3.03
2023-05-14T09:56:38.736Z,2.70
2023-05-14T10:26:42.180Z,2.38
2023-05-14T10:56:45.830Z,2.42
2023-05-14T11:26:48.968Z,2.47
2023-05-14T11:56:52.558Z,2.30
2023-05-14T12:26:55.611Z,2.42
2023-05-14T12:56:58.772Z,1.90
2023-05-14T13:27:01.795Z,2.10
2023-05-14T13:57:05.512Z,1.70
2023-05-14T14:27:08.769Z,1.60
2023-05-14T14:57:14.089Z,1.60
2023-05-14T15:27:17.138Z,1.52
2023-05-14T15:57:20.297Z,1.90
2023-05-14T16:27:23.489Z,1.58
2023-05-14T16:57:26.516Z,2.72
2023-05-14T17:27:29.578Z,2.17
2023-05-14T17:57:34.231Z,2.53
2023-05-14T18:27:37.323Z,1.90
2023-05-14T18:57:40.387Z,2.30
2023-05-14T19:27:43.502Z,2.15
2023-05-14T19:57:46.556Z,2.20
2023-05-14T20:27:49.607Z,2.53
2023-05-14T20:57:52.715Z,2.30
2023-05-14T21:27:56.425Z,2.50
2023-05-14T21:57:59.445Z,2.88
2023-05-14T22:28:02.375Z,2.60
2023-05-14T22:58:05.616Z,2.90
2023-05-14T23:28:08.609Z,2.35
2023-05-14T23:58:11.692Z,2.78
